createdAt,value
2019-05-09T00:41:35.062Z,7.79
2019-05-09T00:44:08.313Z,7.94
2019-05-09T00:46:38.518Z,7.63
2019-05-09T00:49:13.955Z,7.64
2019-05-09T00:51:43.725Z,7.52
2019-05-09T00:54:13.502Z,7.73
2019-05-09T00:56:43.601Z,7.58
2019-05-09T00:59:13.477Z,7.68
2019-05-09T01:01:43.706Z,7.79
2019-05-09T01:04:13.601Z,7.63
2019-05-09T01:06:43.411Z,7.52
2019-05-09T01:09:13.718Z,7.40
2019-05-09T01:11:43.965Z,7.35
2019-05-09T01:14:14.206Z,7.78
2019-05-09T01:16:44.056Z,7.70
2019-05-09T01:19:14.167Z,7.71
2019-05-09T01:21:43.808Z,7.86
2019-05-09T01:24:13.906Z,7.97
2019-05-09T01:26:43.630Z,7.67
2019-05-09T01:29:13.832Z,8.04
2019-05-09T01:31:43.545Z,7.95
2019-05-09T01:34:20.404Z,7.67
2019-05-09T01:37:05.072Z,7.59
2019-05-09T01:39:35.152Z,7.61
2019-05-09T01:42:03.972Z,7.41
2019-05-09T01:44:34.024Z,7.36
2019-05-09T01:47:04.459Z,7.59
2019-05-09T01:49:34.445Z,7.96
2019-05-09T01:52:03.820Z,7.80
2019-05-09T01:54:34.537Z,7.54
2019-05-09T01:57:03.532Z,7.43
2019-05-09T01:59:33.933Z,7.36
2019-05-09T02:02:08.310Z,7.42
2019-05-09T02:04:33.542Z,7.40
2019-05-09T02:07:04.169Z,7.45
2019-05-09T02:09:34.174Z,7.48
2019-05-09T02:12:03.819Z,7.37
2019-05-09T02:14:54.253Z,7.38
2019-05-09T02:17:27.715Z,7.42
2019-05-09T02:19:56.420Z,7.74
2019-05-09T02:22:34.868Z,7.52
2019-05-09T02:25:06.282Z,7.75
2019-05-09T02:27:34.982Z,7.42
2019-05-09T02:30:06.010Z,7.69
2019-05-09T02:32:36.118Z,7.67
2019-05-09T02:35:07.481Z,7.72
2019-05-09T02:37:38.827Z,7.71
2019-05-09T02:40:09.711Z,7.45
2019-05-09T02:42:39.670Z,7.62
2019-05-09T02:45:08.832Z,7.41
2019-05-09T02:47:38.466Z,7.76
2019-05-09T02:50:10.207Z,7.75
2019-05-09T02:52:39.819Z,7.82
2019-05-09T02:55:10.883Z,7.95
2019-05-09T02:57:39.715Z,7.93
2019-05-09T03:00:28.888Z,8.25
2019-05-09T03:03:04.596Z,7.77
2019-05-09T03:05:33.243Z,7.87
2019-05-09T03:08:01.884Z,7.78
2019-05-09T03:10:30.497Z,7.87
2019-05-09T03:12:59.623Z,7.82
2019-05-09T03:15:29.435Z,7.98
2019-05-09T03:17:59.827Z,7.94
2019-05-09T03:20:33.336Z,7.90
2019-05-09T03:23:02.020Z,7.66
2019-05-09T03:25:31.105Z,7.75
2019-05-09T03:28:10.666Z,7.71
2019-05-09T03:30:40.881Z,7.83
2019-05-09T03:33:10.548Z,7.76
2019-05-09T03:35:39.355Z,7.95
2019-05-09T03:38:08.513Z,7.75
2019-05-09T03:40:37.998Z,8.12
2019-05-09T03:43:08.146Z,8.03
2019-05-09T03:45:54.037Z,8.00
2019-05-09T03:48:24.330Z,7.98
2019-05-09T03:50:52.895Z,8.01
2019-05-09T03:53:21.584Z,8.09
2019-05-09T03:55:52.122Z,8.36
2019-05-09T03:58:21.446Z,8.42
2019-05-09T04:00:50.209Z,8.32
2019-05-09T04:03:20.353Z,8.50
2019-05-09T04:05:59.114Z,8.48
2019-05-09T04:08:20.196Z,8.40
2019-05-09T04:10:53.219Z,8.47
2019-05-09T04:13:24.518Z,8.54
2019-05-09T04:15:53.088Z,8.28
2019-05-09T04:18:21.705Z,8.39
2019-05-09T04:20:50.354Z,8.48
2019-05-09T04:23:18.989Z,8.73
2019-05-09T04:25:52.134Z,8.79
2019-05-09T04:28:20.880Z,8.78
2019-05-09T04:30:49.599Z,8.97
2019-05-09T04:33:18.286Z,9.02
2019-05-09T04:35:47.555Z,8.95
2019-05-09T04:38:17.956Z,9.33
2019-05-09T04:40:48.827Z,9.36
2019-05-09T04:43:26.664Z,10.02
2019-05-09T04:46:01.515Z,10.40
2019-05-09T04:48:34.833Z,11.15
2019-05-09T04:51:07.822Z,11.58
2019-05-09T04:53:37.651Z,11.76
2019-05-09T04:56:14.219Z,11.73
2019-05-09T04:58:43.020Z,11.58
2019-05-09T05:01:13.402Z,12.29
2019-05-09T05:03:45.173Z,12.08
2019-05-09T05:06:13.824Z,12.23
2019-05-09T05:08:42.465Z,12.18
2019-05-09T05:11:11.186Z,12.36
2019-05-09T05:13:40.043Z,12.70
2019-05-09T05:16:09.305Z,13.03
2019-05-09T05:18:38.009Z,12.71
2019-05-09T05:21:07.800Z,12.51
2019-05-09T05:23:50.749Z,12.82
2019-05-09T05:26:20.975Z,13.04
2019-05-09T05:28:49.651Z,13.22
2019-05-09T05:31:18.399Z,13.22
2019-05-09T05:33:57.897Z,13.64
2019-05-09T05:36:27.972Z,13.48
2019-05-09T05:38:58.477Z,13.85
2019-05-09T05:41:28.505Z,13.33
2019-05-09T05:43:58.052Z,13.32
2019-05-09T05:46:28.687Z,13.75
2019-05-09T05:48:57.942Z,13.82
2019-05-09T05:51:27.690Z,13.89
2019-05-09T05:53:57.363Z,13.82
2019-05-09T05:56:28.000Z,13.60
2019-05-09T05:58:58.097Z,13.64
2019-05-09T06:01:27.807Z,13.99
2019-05-09T06:03:58.642Z,13.90
2019-05-09T06:06:27.957Z,14.24
2019-05-09T06:08:57.904Z,13.97
2019-05-09T06:11:28.103Z,14.18
2019-05-09T06:14:04.397Z,14.76
2019-05-09T06:16:28.131Z,15.15
2019-05-09T06:18:58.559Z,15.21
2019-05-09T06:21:28.252Z,15.27
2019-05-09T06:23:58.389Z,15.47
2019-05-09T06:26:29.373Z,15.49
2019-05-09T06:28:58.214Z,15.23
2019-05-09T06:31:28.454Z,15.39
2019-05-09T06:33:57.891Z,15.61
2019-05-09T06:36:28.345Z,15.68
2019-05-09T06:38:58.786Z,15.85
2019-05-09T06:41:28.539Z,16.03
2019-05-09T06:44:19.699Z,15.92
2019-05-09T06:46:52.094Z,15.93
2019-05-09T06:49:28.330Z,15.92
2019-05-09T06:51:52.882Z,16.14
2019-05-09T06:54:21.532Z,15.57
2019-05-09T06:56:50.167Z,15.09
2019-05-09T06:59:19.064Z,15.71
2019-05-09T07:01:58.976Z,15.36
2019-05-09T07:04:29.244Z,15.36
2019-05-09T07:07:08.702Z,15.27
2019-05-09T07:09:39.015Z,16.03
2019-05-09T07:12:08.083Z,15.78
2019-05-09T07:14:40.977Z,15.43
2019-05-09T07:17:08.425Z,15.80
2019-05-09T07:19:38.325Z,15.75
2019-05-09T07:22:09.314Z,15.45
2019-05-09T07:25:06.009Z,15.25
2019-05-09T07:27:29.883Z,15.61
2019-05-09T07:30:00.144Z,15.57
2019-05-09T07:32:30.495Z,15.33
2019-05-09T07:35:00.766Z,15.03
2019-05-09T07:37:29.491Z,14.75
2019-05-09T07:39:58.249Z,14.97
2019-05-09T07:42:28.480Z,15.04
2019-05-09T07:44:59.160Z,15.09
2019-05-09T07:47:28.248Z,15.95
2019-05-09T07:49:58.574Z,15.78
2019-05-09T07:52:28.412Z,15.29
2019-05-09T07:54:58.010Z,15.51
2019-05-09T07:57:28.541Z,15.32
2019-05-09T07:59:58.447Z,15.52
2019-05-09T08:02:28.186Z,15.98
2019-05-09T08:04:58.241Z,16.27
2019-05-09T08:07:29.026Z,16.86
2019-05-09T08:09:59.762Z,16.96
2019-05-09T08:12:29.159Z,17.30
2019-05-09T08:15:08.524Z,17.04
2019-05-09T08:17:31.844Z,16.29
2019-05-09T08:20:03.664Z,16.57
2019-05-09T08:22:32.874Z,16.93
2019-05-09T08:25:01.857Z,17.86
2019-05-09T08:27:30.498Z,17.07
2019-05-09T08:29:59.130Z,16.43
2019-05-09T08:32:28.737Z,17.18
2019-05-09T08:34:57.810Z,17.39
2019-05-09T08:37:28.245Z,17.82
2019-05-09T08:39:57.845Z,16.69
2019-05-09T08:42:26.637Z,17.64
2019-05-09T08:44:57.609Z,17.81
2019-05-09T08:47:27.816Z,18.13
2019-05-09T08:50:17.643Z,18.23
2019-05-09T08:52:48.166Z,17.94
2019-05-09T08:55:17.500Z,17.89
2019-05-09T08:57:48.167Z,18.28
2019-05-09T09:00:18.948Z,18.43
2019-05-09T09:02:48.178Z,18.48
2019-05-09T09:05:18.726Z,18.48
2019-05-09T09:07:48.674Z,18.87
2019-05-09T09:10:18.813Z,18.62
2019-05-09T09:12:48.046Z,18.58
2019-05-09T09:15:18.035Z,18.13
2019-05-09T09:17:49.064Z,17.65
2019-05-09T09:20:18.278Z,17.88
2019-05-09T09:22:48.035Z,17.63
2019-05-09T09:25:18.378Z,16.97
2019-05-09T09:27:51.012Z,16.63
2019-05-09T09:30:24.657Z,16.68
2019-05-09T09:32:49.379Z,16.97
2019-05-09T09:35:18.782Z,16.91
2019-05-09T09:37:51.828Z,16.65
2019-05-09T09:40:18.369Z,16.94
2019-05-09T09:42:48.993Z,16.99
2019-05-09T09:45:18.325Z,16.59
2019-05-09T09:47:48.171Z,16.21
2019-05-09T09:50:17.835Z,16.19
2019-05-09T09:52:49.182Z,16.27
2019-05-09T09:55:18.454Z,16.15
2019-05-09T09:57:48.605Z,16.30
2019-05-09T10:00:27.689Z,16.37
2019-05-09T10:02:58.549Z,16.09
2019-05-09T10:05:27.801Z,16.21
2019-05-09T10:07:58.207Z,16.38
2019-05-09T10:10:35.709Z,16.02
2019-05-09T10:13:05.038Z,16.09
2019-05-09T10:15:52.087Z,16.24
2019-05-09T10:18:27.665Z,16.48
2019-05-09T10:21:12.870Z,16.24
2019-05-09T10:23:41.616Z,16.62
2019-05-09T10:26:11.491Z,16.71
2019-05-09T10:28:40.147Z,17.16
2019-05-09T10:31:09.216Z,16.88
2019-05-09T10:33:37.956Z,17.08
2019-05-09T10:36:08.545Z,16.81
2019-05-09T10:38:38.618Z,16.70
2019-05-09T10:41:11.160Z,16.87
2019-05-09T10:43:43.415Z,16.90
2019-05-09T10:46:19.229Z,16.03
2019-05-09T10:48:48.725Z,16.02
2019-05-09T10:51:18.580Z,16.05
2019-05-09T10:53:48.239Z,15.87
2019-05-09T10:56:18.787Z,15.89
2019-05-09T10:58:48.267Z,15.80
2019-05-09T11:01:18.595Z,15.75
2019-05-09T11:03:48.253Z,15.80
2019-05-09T11:06:18.417Z,16.06
2019-05-09T11:08:47.980Z,16.17
2019-05-09T11:11:18.166Z,15.85
2019-05-09T11:13:48.164Z,15.96
2019-05-09T11:16:18.320Z,15.74
2019-05-09T11:18:48.442Z,15.66
2019-05-09T11:21:19.162Z,15.84
2019-05-09T11:23:49.016Z,15.89
2019-05-09T11:26:18.246Z,15.81
2019-05-09T11:28:47.176Z,15.38
2019-05-09T11:31:18.474Z,15.31
2019-05-09T11:33:48.478Z,15.42
2019-05-09T11:36:20.744Z,15.51
2019-05-09T11:38:49.400Z,15.48
2019-05-09T11:41:19.258Z,15.66
2019-05-09T11:43:48.743Z,15.33
2019-05-09T11:46:18.351Z,15.40
2019-05-09T11:48:47.407Z,15.35
2019-05-09T11:51:20.358Z,15.47
2019-05-09T11:53:48.757Z,15.36
2019-05-09T11:56:18.129Z,15.29
2019-05-09T11:58:48.128Z,15.31
2019-05-09T12:01:19.128Z,15.33
2019-05-09T12:03:51.971Z,15.31
2019-05-09T12:06:20.230Z,15.36
2019-05-09T12:08:50.206Z,15.19
2019-05-09T12:11:19.053Z,15.06
2019-05-09T12:13:50.245Z,15.10
2019-05-09T12:16:19.139Z,14.92
2019-05-09T12:18:48.783Z,14.73
2019-05-09T12:21:19.155Z,14.72
2019-05-09T12:23:51.301Z,14.73
2019-05-09T12:26:30.744Z,14.65
2019-05-09T12:29:05.727Z,14.58
2019-05-09T12:31:38.904Z,14.44
2019-05-09T12:34:13.200Z,14.46
2019-05-09T12:36:43.651Z,14.45
2019-05-09T12:39:13.082Z,14.48
2019-05-09T12:41:41.745Z,14.27
2019-05-09T12:44:12.007Z,14.31
2019-05-09T12:46:42.301Z,14.08
2019-05-09T12:49:10.960Z,14.14
2019-05-09T12:51:39.708Z,14.03
2019-05-09T12:54:11.050Z,14.15
2019-05-09T12:56:39.714Z,14.09
2019-05-09T12:59:09.565Z,14.04
2019-05-09T13:01:41.002Z,14.02
2019-05-09T13:04:09.755Z,14.07
2019-05-09T13:06:38.712Z,14.06
2019-05-09T13:09:08.425Z,13.94
2019-05-09T13:11:39.081Z,14.21
2019-05-09T13:14:09.961Z,14.22
2019-05-09T13:16:49.259Z,14.19
2019-05-09T13:19:14.529Z,14.14
2019-05-09T13:21:43.251Z,14.15
2019-05-09T13:24:11.956Z,14.04
2019-05-09T13:26:41.402Z,14.24
2019-05-09T13:29:10.078Z,14.06
2019-05-09T13:31:39.656Z,14.05
2019-05-09T13:34:08.690Z,14.07
2019-05-09T13:36:37.254Z,14.24
2019-05-09T13:39:09.714Z,14.12
2019-05-09T13:41:39.718Z,14.15
2019-05-09T13:44:13.481Z,14.37
2019-05-09T13:46:39.106Z,14.27
2019-05-09T13:49:12.436Z,14.36
2019-05-09T13:51:49.695Z,14.51
2019-05-09T13:54:08.680Z,14.60
2019-05-09T13:56:37.249Z,14.63
2019-05-09T13:59:08.302Z,14.51
2019-05-09T14:01:38.175Z,14.52
2019-05-09T14:04:07.898Z,14.76
2019-05-09T14:06:38.663Z,14.71
2019-05-09T14:09:10.513Z,14.72
2019-05-09T14:11:39.616Z,14.58
2019-05-09T14:14:08.264Z,14.40
2019-05-09T14:16:38.971Z,14.54
2019-05-09T14:19:26.230Z,14.38
2019-05-09T14:21:37.814Z,14.44
2019-05-09T14:24:14.455Z,14.44
2019-05-09T14:26:36.969Z,14.43
2019-05-09T14:29:05.872Z,14.38
2019-05-09T14:31:34.638Z,14.36
2019-05-09T14:34:03.285Z,14.23
2019-05-09T14:36:32.977Z,14.34
2019-05-09T14:39:01.708Z,14.40
2019-05-09T14:41:30.340Z,14.51
2019-05-09T14:43:59.849Z,14.71
2019-05-09T14:46:28.697Z,14.70
2019-05-09T14:48:58.416Z,14.61
2019-05-09T14:51:28.430Z,14.53
2019-05-09T14:53:59.359Z,14.63
2019-05-09T14:56:28.254Z,14.41
2019-05-09T14:58:58.129Z,14.32
2019-05-09T15:01:28.796Z,14.57
2019-05-09T15:03:58.543Z,14.32
2019-05-09T15:06:28.336Z,14.48
2019-05-09T15:08:58.096Z,14.33
2019-05-09T15:11:28.135Z,14.34
2019-05-09T15:13:58.514Z,14.33
2019-05-09T15:16:28.210Z,14.30
2019-05-09T15:18:58.408Z,14.35
2019-05-09T15:21:27.521Z,14.50
2019-05-09T15:23:58.453Z,14.23
2019-05-09T15:26:27.578Z,14.33
2019-05-09T15:28:57.885Z,14.33
2019-05-09T15:31:28.619Z,14.26
2019-05-09T15:33:57.058Z,14.16
2019-05-09T15:36:25.745Z,14.28
2019-05-09T15:38:54.390Z,14.24
2019-05-09T15:41:23.046Z,14.46
2019-05-09T15:43:51.737Z,14.59
2019-05-09T15:46:21.905Z,14.75
2019-05-09T15:48:50.531Z,14.63
2019-05-09T15:51:19.283Z,14.65
2019-05-09T15:53:48.674Z,14.55
2019-05-09T15:56:18.821Z,14.66
2019-05-09T15:58:49.073Z,14.59
2019-05-09T16:01:18.450Z,14.87
2019-05-09T16:03:48.536Z,14.77
2019-05-09T16:06:19.771Z,14.89
2019-05-09T16:08:47.973Z,14.90
2019-05-09T16:11:18.060Z,14.30
2019-05-09T16:13:47.963Z,14.09
2019-05-09T16:16:17.753Z,13.94
2019-05-09T16:18:48.686Z,13.75
2019-05-09T16:21:17.019Z,13.75
2019-05-09T16:23:48.647Z,13.69
2019-05-09T16:26:18.107Z,13.71
2019-05-09T16:28:48.751Z,13.71
2019-05-09T16:31:17.638Z,13.82
2019-05-09T16:33:47.715Z,13.91
2019-05-09T16:36:17.584Z,14.03
2019-05-09T16:38:48.996Z,14.05
2019-05-09T16:41:18.484Z,14.02
2019-05-09T16:43:47.930Z,14.02
2019-05-09T16:46:18.163Z,14.03
2019-05-09T16:48:47.615Z,14.04
2019-05-09T16:51:18.214Z,14.04
2019-05-09T16:53:47.536Z,14.02
2019-05-09T16:56:18.031Z,14.10
2019-05-09T16:58:47.045Z,14.28
2019-05-09T17:01:18.586Z,14.35
2019-05-09T17:03:46.668Z,14.33
2019-05-09T17:06:18.400Z,14.25
2019-05-09T17:08:47.562Z,14.21
2019-05-09T17:11:19.128Z,14.05
2019-05-09T17:13:47.042Z,14.04
2019-05-09T17:16:17.751Z,14.09
2019-05-09T17:18:48.461Z,13.97
2019-05-09T17:21:24.521Z,13.88
2019-05-09T17:23:53.794Z,13.76
2019-05-09T17:26:22.473Z,13.77
2019-05-09T17:28:51.208Z,13.82
2019-05-09T17:31:19.929Z,13.78
2019-05-09T17:33:48.729Z,13.64
2019-05-09T17:36:18.179Z,13.63
2019-05-09T17:38:47.859Z,13.61
2019-05-09T17:41:17.726Z,13.66
2019-05-09T17:43:47.487Z,13.70
2019-05-09T17:46:18.965Z,13.60
2019-05-09T17:48:47.964Z,13.61
2019-05-09T17:51:25.905Z,13.59
2019-05-09T17:53:51.856Z,13.59
2019-05-09T17:56:17.740Z,13.52
2019-05-09T17:58:48.415Z,13.45
2019-05-09T18:01:18.015Z,13.49
2019-05-09T18:03:48.097Z,13.51
2019-05-09T18:06:19.165Z,13.62
2019-05-09T18:08:48.412Z,13.64
2019-05-09T18:11:17.495Z,13.67
2019-05-09T18:16:31.920Z,13.53
2019-05-09T18:19:00.939Z,13.59
2019-05-09T18:25:11.521Z,13.72
2019-05-09T18:27:51.153Z,13.59
2019-05-09T18:30:20.119Z,13.53
2019-05-09T18:32:50.432Z,13.56
2019-05-09T18:35:23.119Z,13.60
2019-05-09T18:37:51.901Z,13.63
2019-05-09T18:40:20.860Z,13.67
2019-05-09T18:42:49.514Z,13.72
2019-05-09T18:45:19.582Z,13.78
2019-05-09T18:47:48.401Z,13.91
2019-05-09T18:50:18.552Z,13.84
2019-05-09T18:52:50.149Z,13.78
2019-05-09T18:55:24.169Z,13.69
2019-05-09T18:57:56.928Z,13.69
2019-05-09T19:00:28.644Z,13.78
2019-05-09T19:02:59.479Z,13.70
2019-05-09T19:05:33.371Z,13.67
2019-05-09T19:08:02.050Z,13.59
2019-05-09T19:10:32.290Z,13.55
2019-05-09T19:13:02.475Z,13.57
2019-05-09T19:15:35.554Z,13.60
2019-05-09T19:18:11.380Z,13.59
2019-05-09T19:20:49.279Z,13.61
2019-05-09T19:23:19.761Z,13.66
2019-05-09T19:25:48.417Z,13.70
2019-05-09T19:28:18.665Z,13.59
2019-05-09T19:30:54.916Z,13.60
2019-05-09T19:33:23.660Z,13.59
2019-05-09T19:35:54.082Z,13.69
2019-05-09T19:38:22.807Z,13.46
2019-05-09T19:40:51.525Z,13.25
2019-05-09T19:43:24.100Z,13.28
2019-05-09T19:45:52.807Z,13.37
2019-05-09T19:48:21.389Z,13.43
2019-05-09T19:50:50.058Z,13.38
2019-05-09T19:53:21.300Z,13.40
2019-05-09T19:55:49.885Z,13.38
2019-05-09T19:58:18.449Z,13.26
2019-05-09T20:00:56.889Z,13.29
2019-05-09T20:03:25.516Z,13.28
2019-05-09T20:05:54.140Z,13.03
2019-05-09T20:08:23.201Z,12.87
2019-05-09T20:11:07.025Z,12.91
2019-05-09T20:13:40.403Z,12.84
2019-05-09T20:16:09.122Z,12.69
2019-05-09T20:18:37.790Z,12.70
2019-05-09T20:21:09.298Z,12.80
2019-05-09T20:23:37.828Z,12.63
2019-05-09T20:26:15.863Z,12.66
2019-05-09T20:28:44.590Z,12.69
2019-05-09T20:31:13.108Z,12.92
2019-05-09T20:33:41.628Z,12.72
2019-05-09T20:36:11.811Z,12.61
2019-05-09T20:38:42.221Z,12.58
2019-05-09T20:41:10.903Z,12.41
2019-05-09T20:43:51.637Z,12.80
2019-05-09T20:46:21.661Z,12.89
2019-05-09T20:48:50.323Z,12.59
2019-05-09T20:51:19.162Z,12.48
2019-05-09T20:53:50.215Z,12.32
2019-05-09T20:56:23.118Z,12.32
2019-05-09T20:58:56.166Z,12.28
2019-05-09T21:01:26.512Z,11.93
2019-05-09T21:04:00.057Z,12.18
2019-05-09T21:06:26.751Z,12.17
2019-05-09T21:08:55.582Z,12.24
2019-05-09T21:11:36.663Z,12.09
2019-05-09T21:14:07.353Z,12.27
2019-05-09T21:16:37.633Z,12.22
2019-05-09T21:19:06.452Z,12.05
2019-05-09T21:21:38.087Z,12.21
2019-05-09T21:24:08.798Z,12.10
2019-05-09T21:26:40.799Z,12.17
2019-05-09T21:29:12.718Z,12.01
2019-05-09T21:31:41.639Z,12.16
2019-05-09T21:34:10.499Z,12.30
2019-05-09T21:36:43.545Z,12.48
2019-05-09T21:39:13.875Z,12.44
2019-05-09T21:41:42.391Z,12.37
2019-05-09T21:44:11.013Z,12.37
2019-05-09T21:46:42.178Z,12.28
2019-05-09T21:49:10.834Z,12.39
2019-05-09T21:51:42.215Z,12.40
2019-05-09T21:54:10.790Z,12.53
2019-05-09T21:56:41.095Z,12.57
2019-05-09T21:59:09.789Z,12.73
2019-05-09T22:01:41.198Z,12.85
2019-05-09T22:04:09.923Z,12.53
2019-05-09T22:06:40.269Z,12.48
2019-05-09T22:09:10.389Z,12.25
2019-05-09T22:11:39.026Z,12.01
2019-05-09T22:14:07.746Z,12.23
2019-05-09T22:16:36.480Z,12.17
2019-05-09T22:19:05.099Z,12.02
2019-05-09T22:21:38.474Z,12.01
2019-05-09T22:24:07.066Z,11.95
2019-05-09T22:26:35.729Z,11.89
2019-05-09T22:29:07.720Z,12.05
2019-05-09T22:31:37.901Z,12.01
2019-05-09T22:34:06.472Z,12.08
2019-05-09T22:36:35.167Z,12.18
2019-05-09T22:39:05.284Z,12.21
2019-05-09T22:41:33.935Z,12.15
2019-05-09T22:44:02.620Z,11.98
2019-05-09T22:46:31.330Z,11.98
2019-05-09T22:49:05.138Z,11.94
2019-05-09T22:51:39.723Z,11.92
2019-05-09T22:54:12.759Z,12.19
2019-05-09T22:56:38.704Z,12.23
2019-05-09T22:59:11.515Z,12.46
2019-05-09T23:01:41.622Z,12.31
2019-05-09T23:04:11.906Z,12.27
2019-05-09T23:06:40.518Z,12.30
2019-05-09T23:09:09.169Z,12.34
2019-05-09T23:11:40.625Z,12.20
2019-05-09T23:14:11.421Z,12.21
2019-05-09T23:16:41.177Z,12.37
2019-05-09T23:19:09.815Z,12.39
2019-05-09T23:21:38.575Z,12.33
2019-05-09T23:24:08.847Z,12.34
2019-05-09T23:26:42.302Z,12.33
2019-05-09T23:29:10.932Z,12.75
2019-05-09T23:31:42.711Z,12.55
2019-05-09T23:34:11.354Z,12.36
2019-05-09T23:36:42.521Z,12.43
2019-05-09T23:39:15.972Z,12.22
2019-05-09T23:41:45.983Z,12.40
2019-05-09T23:44:14.562Z,12.26
2019-05-09T23:46:45.623Z,12.26
2019-05-09T23:49:14.324Z,12.20
2019-05-09T23:51:46.079Z,12.23
2019-05-09T23:54:45.191Z,12.21
2019-05-09T23:57:25.120Z,11.78
